sensor_id;sensor_type;location;lat;lon;timestamp;temperature;humidity
80695;DHT22;70059;42.702;23.312;2024-01-15T00:00:13;0.80;65.00
80695;DHT22;70059;42.702;23.312;2024-01-15T00:02:39;1.00;63.90
80695;DHT22;70059;42.702;23.312;2024-01-15T00:05:05;1.00;63.40
80695;DHT22;70059;42.702;23.312;2024-01-15T00:07:30;0.80;63.50
80695;DHT22;70059;42.702;23.312;2024-01-15T00:09:57;0.80;64.70
80695;DHT22;70059;42.702;23.312;2024-01-15T00:12:23;0.70;63.90
80695;DHT22;70059;42.702;23.312;2024-01-15T00:14:49;0.60;65.00
80695;DHT22;70059;42.702;23.312;2024-01-15T00:17:14;0.80;64.00
80695;DHT22;70059;42.702;23.312;2024-01-15T00:19:40;0.90;64.50
80695;DHT22;70059;42.702;23.312;2024-01-15T00:22:06;0.90;63.90
80695;DHT22;70059;42.702;23.312;2024-01-15T00:24:31;0.80;62.90
80695;DHT22;70059;42.702;23.312;2024-01-15T00:26:57;0.70;64.90
80695;DHT22;70059;42.702;23.312;2024-01-15T00:29:23;0.50;64.50
80695;DHT22;70059;42.702;23.312;2024-01-15T00:31:48;0.60;64.40
80695;DHT22;70059;42.702;23.312;2024-01-15T00:34:14;0.60;64.50
80695;DHT22;70059;42.702;23.312;2024-01-15T00:36:40;0.60;65.10
80695;DHT22;70059;42.702;23.312;2024-01-15T00:39:05;0.50;64.20
80695;DHT22;70059;42.702;23.312;2024-01-15T00:41:31;0.40;65.80
80695;DHT22;70059;42.702;23.312;2024-01-15T00:43:57;0.30;65.40
80695;DHT22;70059;42.702;23.312;2024-01-15T00:46:23;0.50;66.40
80695;DHT22;70059;42.702;23.312;2024-01-15T00:48:49;0.70;65.00
80695;DHT22;70059;42.702;23.312;2024-01-15T00:51:15;0.50;64.20
80695;DHT22;70059;42.702;23.312;2024-01-15T00:53:40;0.50;64.70
80695;DHT22;70059;42.702;23.312;2024-01-15T00:56:06;0.50;65.00
80695;DHT22;70059;42.702;23.312;2024-01-15T00:58:32;0.30;65.90
80695;DHT22;70059;42.702;23.312;2024-01-15T01:00:57;0.60;64.90
80695;DHT22;70059;42.702;23.312;2024-01-15T01:03:23;0.50;64.60
80695;DHT22;70059;42.702;23.312;2024-01-15T01:05:49;0.50;64.30
80695;DHT22;70059;42.702;23.312;2024-01-15T01:08:17;0.60;65.00
80695;DHT22;70059;42.702;23.312;2024-01-15T01:10:43;0.70;64.10
80695;DHT22;70059;42.702;23.312;2024-01-15T01:13:09;0.60;65.20
80695;DHT22;70059;42.702;23.312;2024-01-15T01:15:35;0.70;64.90
80695;DHT22;70059;42.702;23.312;2024-01-15T01:18:01;0.70;63.80
80695;DHT22;70059;42.702;23.312;2024-01-15T01:20:26;0.70;64.80
80695;DHT22;70059;42.702;23.312;2024-01-15T01:22:52;0.70;64.10
80695;DHT22;70059;42.702;23.312;2024-01-15T01:25:18;0.60;63.90
80695;DHT22;70059;42.702;23.312;2024-01-15T01:27:43;0.40;63.90
80695;DHT22;70059;42.702;23.312;2024-01-15T01:30:09;0.60;65.20
80695;DHT22;70059;42.702;23.312;2024-01-15T01:32:38;0.50;63.90
80695;DHT22;70059;42.702;23.312;2024-01-15T01:35:04;0.50;65.00
80695;DHT22;70059;42.702;23.312;2024-01-15T01:37:30;0.50;65.20
80695;DHT22;70059;42.702;23.312;2024-01-15T01:39:55;0.60;65.00
80695;DHT22;70059;42.702;23.312;2024-01-15T01:42:21;0.60;64.40
80695;DHT22;70059;42.702;23.312;2024-01-15T01:44:47;0.60;64.40
80695;DHT22;70059;42.702;23.312;2024-01-15T01:47:13;0.60;64.70
80695;DHT22;70059;42.702;23.312;2024-01-15T01:49:40;0.60;64.50
80695;DHT22;70059;42.702;23.312;2024-01-15T01:52:07;0.50;64.00
80695;DHT22;70059;42.702;23.312;2024-01-15T01:54:33;0.60;63.90
80695;DHT22;70059;42.702;23.312;2024-01-15T01:56:59;0.50;63.70
80695;DHT22;70059;42.702;23.312;2024-01-15T01:59:27;0.50;63.90
80695;DHT22;70059;42.702;23.312;2024-01-15T02:01:54;0.30;64.30
80695;DHT22;70059;42.702;23.312;2024-01-15T02:04:24;0.30;64.80
80695;DHT22;70059;42.702;23.312;2024-01-15T02:06:51;0.40;64.10
80695;DHT22;70059;42.702;23.312;2024-01-15T02:09:20;0.40;64.00
80695;DHT22;70059;42.702;23.312;2024-01-15T02:11:49;0.50;63.90
80695;DHT22;70059;42.702;23.312;2024-01-15T02:14:15;0.60;63.70
80695;DHT22;70059;42.702;23.312;2024-01-15T02:16:41;0.50;63.80
80695;DHT22;70059;42.702;23.312;2024-01-15T02:19:07;0.60;63.60
80695;DHT22;70059;42.702;23.312;2024-01-15T02:21:33;0.70;63.60
80695;DHT22;70059;42.702;23.312;2024-01-15T02:23:59;0.70;63.70
80695;DHT22;70059;42.702;23.312;2024-01-15T02:26:25;0.50;62.60
80695;DHT22;70059;42.702;23.312;2024-01-15T02:28:51;0.40;62.90
80695;DHT22;70059;42.702;23.312;2024-01-15T02:31:17;0.30;64.90
80695;DHT22;70059;42.702;23.312;2024-01-15T02:33:44;0.30;63.80
80695;DHT22;70059;42.702;23.312;2024-01-15T02:36:11;0.30;65.00
80695;DHT22;70059;42.702;23.312;2024-01-15T02:38:37;0.40;65.10
80695;DHT22;70059;42.702;23.312;2024-01-15T02:41:03;0.50;64.10
80695;DHT22;70059;42.702;23.312;2024-01-15T02:43:28;0.50;62.60
80695;DHT22;70059;42.702;23.312;2024-01-15T02:45:54;0.60;63.10
80695;DHT22;70059;42.702;23.312;2024-01-15T02:48:20;0.50;63.70
80695;DHT22;70059;42.702;23.312;2024-01-15T02:50:45;0.50;63.20
80695;DHT22;70059;42.702;23.312;2024-01-15T02:53:11;0.40;64.00
80695;DHT22;70059;42.702;23.312;2024-01-15T02:55:37;0.20;64.00
80695;DHT22;70059;42.702;23.312;2024-01-15T02:58:03;0.00;65.10
80695;DHT22;70059;42.702;23.312;2024-01-15T03:00:29;0.20;65.30
80695;DHT22;70059;42.702;23.312;2024-01-15T03:02:55;0.30;64.70
80695;DHT22;70059;42.702;23.312;2024-01-15T03:05:21;0.30;63.70
80695;DHT22;70059;42.702;23.312;2024-01-15T03:07:46;0.40;64.40
80695;DHT22;70059;42.702;23.312;2024-01-15T03:10:13;0.30;63.80
80695;DHT22;70059;42.702;23.312;2024-01-15T03:12:38;0.40;64.50
80695;DHT22;70059;42.702;23.312;2024-01-15T03:15:05;0.40;63.30
80695;DHT22;70059;42.702;23.312;2024-01-15T03:17:31;0.40;63.30
80695;DHT22;70059;42.702;23.312;2024-01-15T03:19:57;0.40;62.30
80695;DHT22;70059;42.702;23.312;2024-01-15T03:22:22;0.40;61.90
80695;DHT22;70059;42.702;23.312;2024-01-15T03:24:48;0.40;61.90
80695;DHT22;70059;42.702;23.312;2024-01-15T03:27:14;0.40;61.40
80695;DHT22;70059;42.702;23.312;2024-01-15T03:29:40;0.40;61.80
80695;DHT22;70059;42.702;23.312;2024-01-15T03:32:06;0.40;61.50
80695;DHT22;70059;42.702;23.312;2024-01-15T03:34:32;0.50;61.40
80695;DHT22;70059;42.702;23.312;2024-01-15T03:36:58;0.60;61.50
80695;DHT22;70059;42.702;23.312;2024-01-15T03:39:24;0.60;60.80
80695;DHT22;70059;42.702;23.312;2024-01-15T03:41:50;0.70;61.30
80695;DHT22;70059;42.702;23.312;2024-01-15T03:44:16;0.80;60.30
80695;DHT22;70059;42.702;23.312;2024-01-15T03:46:42;0.90;60.60
80695;DHT22;70059;42.702;23.312;2024-01-15T03:49:07;1.00;60.10
80695;DHT22;70059;42.702;23.312;2024-01-15T03:51:33;1.10;60.30
80695;DHT22;70059;42.702;23.312;2024-01-15T03:53:59;0.80;59.90
80695;DHT22;70059;42.702;23.312;2024-01-15T03:56:24;0.70;60.20
80695;DHT22;70059;42.702;23.312;2024-01-15T03:58:50;0.70;60.70
80695;DHT22;70059;42.702;23.312;2024-01-15T04:01:16;0.70;60.60
80695;DHT22;70059;42.702;23.312;2024-01-15T04:03:41;0.70;60.50
80695;DHT22;70059;42.702;23.312;2024-01-15T04:06:07;0.80;59.90
80695;DHT22;70059;42.702;23.312;2024-01-15T04:08:32;0.80;60.40
80695;DHT22;70059;42.702;23.312;2024-01-15T04:10:58;0.80;59.60
80695;DHT22;70059;42.702;23.312;2024-01-15T04:13:24;0.70;60.20
80695;DHT22;70059;42.702;23.312;2024-01-15T04:15:50;0.80;60.40
80695;DHT22;70059;42.702;23.312;2024-01-15T04:18:16;0.60;61.20
80695;DHT22;70059;42.702;23.312;2024-01-15T04:20:43;0.50;60.40
80695;DHT22;70059;42.702;23.312;2024-01-15T04:23:09;0.70;60.50
80695;DHT22;70059;42.702;23.312;2024-01-15T04:25:34;0.60;59.80
80695;DHT22;70059;42.702;23.312;2024-01-15T04:28:00;0.50;59.80
80695;DHT22;70059;42.702;23.312;2024-01-15T04:30:26;0.40;59.60
80695;DHT22;70059;42.702;23.312;2024-01-15T04:32:52;0.20;60.30
80695;DHT22;70059;42.702;23.312;2024-01-15T04:35:18;0.00;61.20
80695;DHT22;70059;42.702;23.312;2024-01-15T04:37:43;-0.10;62.40
80695;DHT22;70059;42.702;23.312;2024-01-15T04:40:11;-0.20;62.60
80695;DHT22;70059;42.702;23.312;2024-01-15T04:42:36;-0.30;62.90
80695;DHT22;70059;42.702;23.312;2024-01-15T04:45:02;-0.30;63.30
80695;DHT22;70059;42.702;23.312;2024-01-15T04:47:28;-0.50;63.80
80695;DHT22;70059;42.702;23.312;2024-01-15T04:49:54;-0.40;64.20
80695;DHT22;70059;42.702;23.312;2024-01-15T04:52:20;-0.40;64.10
80695;DHT22;70059;42.702;23.312;2024-01-15T04:54:46;-0.50;64.50
80695;DHT22;70059;42.702;23.312;2024-01-15T04:57:11;-0.50;64.90
80695;DHT22;70059;42.702;23.312;2024-01-15T04:59:37;-0.50;65.10
80695;DHT22;70059;42.702;23.312;2024-01-15T05:02:03;-0.40;65.10
80695;DHT22;70059;42.702;23.312;2024-01-15T05:04:29;-0.30;64.40
80695;DHT22;70059;42.702;23.312;2024-01-15T05:06:55;-0.40;64.40
80695;DHT22;70059;42.702;23.312;2024-01-15T05:09:21;-0.50;64.70
80695;DHT22;70059;42.702;23.312;2024-01-15T05:11:46;-0.50;64.90
80695;DHT22;70059;42.702;23.312;2024-01-15T05:14:12;-0.60;65.40
80695;DHT22;70059;42.702;23.312;2024-01-15T05:16:39;-0.50;65.70
80695;DHT22;70059;42.702;23.312;2024-01-15T05:19:07;-0.50;65.40
80695;DHT22;70059;42.702;23.312;2024-01-15T05:21:33;-0.60;65.70
80695;DHT22;70059;42.702;23.312;2024-01-15T05:23:58;-0.50;65.80
80695;DHT22;70059;42.702;23.312;2024-01-15T05:26:24;-0.50;65.90
80695;DHT22;70059;42.702;23.312;2024-01-15T05:28:52;-0.60;65.60
80695;DHT22;70059;42.702;23.312;2024-01-15T05:31:18;-0.60;66.20
80695;DHT22;70059;42.702;23.312;2024-01-15T05:33:46;-0.70;66.30
80695;DHT22;70059;42.702;23.312;2024-01-15T05:36:11;-0.70;66.30
80695;DHT22;70059;42.702;23.312;2024-01-15T05:38:37;-0.70;66.40
80695;DHT22;70059;42.702;23.312;2024-01-15T05:41:06;-0.70;66.30
80695;DHT22;70059;42.702;23.312;2024-01-15T05:43:35;-0.60;66.10
80695;DHT22;70059;42.702;23.312;2024-01-15T05:46:02;-0.70;65.80
80695;DHT22;70059;42.702;23.312;2024-01-15T05:48:32;-0.70;65.80
80695;DHT22;70059;42.702;23.312;2024-01-15T05:50:58;-0.80;65.90
80695;DHT22;70059;42.702;23.312;2024-01-15T05:53:24;-0.80;65.90
80695;DHT22;70059;42.702;23.312;2024-01-15T05:55:53;-0.70;65.80
80695;DHT22;70059;42.702;23.312;2024-01-15T05:58:19;-0.60;65.40
80695;DHT22;70059;42.702;23.312;2024-01-15T06:00:45;-0.60;65.30
80695;DHT22;70059;42.702;23.312;2024-01-15T06:03:17;-0.50;65.60
80695;DHT22;70059;42.702;23.312;2024-01-15T06:05:43;-0.60;65.30
80695;DHT22;70059;42.702;23.312;2024-01-15T06:08:11;-0.70;65.80
80695;DHT22;70059;42.702;23.312;2024-01-15T06:10:37;-0.70;66.40
80695;DHT22;70059;42.702;23.312;2024-01-15T06:13:09;-0.70;66.70
80695;DHT22;70059;42.702;23.312;2024-01-15T06:15:39;-0.60;67.00
80695;DHT22;70059;42.702;23.312;2024-01-15T06:18:05;-0.60;67.20
80695;DHT22;70059;42.702;23.312;2024-01-15T06:20:32;-0.60;66.90
80695;DHT22;70059;42.702;23.312;2024-01-15T06:22:58;-0.70;67.30
80695;DHT22;70059;42.702;23.312;2024-01-15T06:25:24;-0.60;67.30
80695;DHT22;70059;42.702;23.312;2024-01-15T06:27:49;-0.50;66.80
80695;DHT22;70059;42.702;23.312;2024-01-15T06:30:17;-0.40;66.30
80695;DHT22;70059;42.702;23.312;2024-01-15T06:32:44;-0.40;65.90
80695;DHT22;70059;42.702;23.312;2024-01-15T06:35:10;-0.10;65.70
80695;DHT22;70059;42.702;23.312;2024-01-15T06:37:37;0.00;64.90
80695;DHT22;70059;42.702;23.312;2024-01-15T06:40:03;0.20;64.20
80695;DHT22;70059;42.702;23.312;2024-01-15T06:42:32;0.40;63.80
80695;DHT22;70059;42.702;23.312;2024-01-15T06:44:58;0.40;63.50
80695;DHT22;70059;42.702;23.312;2024-01-15T06:47:24;0.50;63.50
80695;DHT22;70059;42.702;23.312;2024-01-15T06:49:49;0.70;63.20
80695;DHT22;70059;42.702;23.312;2024-01-15T06:52:17;0.80;62.70
80695;DHT22;70059;42.702;23.312;2024-01-15T06:54:43;1.00;62.20
80695;DHT22;70059;42.702;23.312;2024-01-15T06:57:11;1.20;61.60
80695;DHT22;70059;42.702;23.312;2024-01-15T06:59:37;1.40;61.10
80695;DHT22;70059;42.702;23.312;2024-01-15T07:02:03;1.60;60.00
80695;DHT22;70059;42.702;23.312;2024-01-15T07:04:36;1.80;59.50
80695;DHT22;70059;42.702;23.312;2024-01-15T07:07:08;2.00;58.80
80695;DHT22;70059;42.702;23.312;2024-01-15T07:09:34;2.10;58.30
80695;DHT22;70059;42.702;23.312;2024-01-15T07:12:02;2.10;57.70
80695;DHT22;70059;42.702;23.312;2024-01-15T07:14:30;2.10;58.00
80695;DHT22;70059;42.702;23.312;2024-01-15T07:16:58;2.00;58.30
80695;DHT22;70059;42.702;23.312;2024-01-15T07:19:27;2.10;58.00
80695;DHT22;70059;42.702;23.312;2024-01-15T07:21:53;2.10;57.90
80695;DHT22;70059;42.702;23.312;2024-01-15T07:24:18;2.00;57.70
80695;DHT22;70059;42.702;23.312;2024-01-15T07:27:13;2.00;57.80
80695;DHT22;70059;42.702;23.312;2024-01-15T07:33:39;2.20;57.80
80695;DHT22;70059;42.702;23.312;2024-01-15T07:36:05;2.30;57.50
80695;DHT22;70059;42.702;23.312;2024-01-15T07:38:30;2.40;57.10
80695;DHT22;70059;42.702;23.312;2024-01-15T07:40:56;2.50;57.00
80695;DHT22;70059;42.702;23.312;2024-01-15T07:43:22;2.60;56.70
80695;DHT22;70059;42.702;23.312;2024-01-15T07:45:48;2.70;56.30
80695;DHT22;70059;42.702;23.312;2024-01-15T07:48:13;2.80;56.40
80695;DHT22;70059;42.702;23.312;2024-01-15T07:50:42;2.80;56.00
80695;DHT22;70059;42.702;23.312;2024-01-15T07:53:08;2.90;55.80
80695;DHT22;70059;42.702;23.312;2024-01-15T07:55:37;3.00;55.70
80695;DHT22;70059;42.702;23.312;2024-01-15T07:58:04;3.10;55.80
80695;DHT22;70059;42.702;23.312;2024-01-15T08:00:33;3.20;55.40
80695;DHT22;70059;42.702;23.312;2024-01-15T08:03:05;3.40;54.40
80695;DHT22;70059;42.702;23.312;2024-01-15T08:05:31;3.70;53.60
80695;DHT22;70059;42.702;23.312;2024-01-15T08:08:18;3.80;53.80
80695;DHT22;70059;42.702;23.312;2024-01-15T08:10:47;3.90;53.80
80695;DHT22;70059;42.702;23.312;2024-01-15T08:13:35;4.10;53.40
80695;DHT22;70059;42.702;23.312;2024-01-15T08:16:01;4.40;51.50
80695;DHT22;70059;42.702;23.312;2024-01-15T08:18:36;4.40;51.50
80695;DHT22;70059;42.702;23.312;2024-01-15T08:21:04;4.30;51.60
80695;DHT22;70059;42.702;23.312;2024-01-15T08:23:30;4.30;51.40
80695;DHT22;70059;42.702;23.312;2024-01-15T08:25:57;4.30;51.60
80695;DHT22;70059;42.702;23.312;2024-01-15T08:28:26;4.40;50.80
80695;DHT22;70059;42.702;23.312;2024-01-15T08:30:53;4.50;50.50
80695;DHT22;70059;42.702;23.312;2024-01-15T08:33:19;4.60;50.70
80695;DHT22;70059;42.702;23.312;2024-01-15T08:35:44;4.70;50.60
80695;DHT22;70059;42.702;23.312;2024-01-15T08:38:11;4.80;50.00
80695;DHT22;70059;42.702;23.312;2024-01-15T08:40:37;5.00;49.60
80695;DHT22;70059;42.702;23.312;2024-01-15T08:43:02;5.20;49.20
80695;DHT22;70059;42.702;23.312;2024-01-15T08:45:28;5.40;48.90
80695;DHT22;70059;42.702;23.312;2024-01-15T08:47:54;5.60;48.60
80695;DHT22;70059;42.702;23.312;2024-01-15T08:50:20;5.90;48.00
80695;DHT22;70059;42.702;23.312;2024-01-15T08:52:46;5.90;47.80
80695;DHT22;70059;42.702;23.312;2024-01-15T08:55:19;6.00;47.30
80695;DHT22;70059;42.702;23.312;2024-01-15T08:57:57;6.10;47.30
80695;DHT22;70059;42.702;23.312;2024-01-15T09:00:46;6.30;46.80
80695;DHT22;70059;42.702;23.312;2024-01-15T09:03:20;6.50;45.30
80695;DHT22;70059;42.702;23.312;2024-01-15T09:05:54;6.40;45.60
80695;DHT22;70059;42.702;23.312;2024-01-15T09:08:20;6.10;45.90
80695;DHT22;70059;42.702;23.312;2024-01-15T09:10:49;6.00;46.90
80695;DHT22;70059;42.702;23.312;2024-01-15T09:13:14;6.00;47.00
80695;DHT22;70059;42.702;23.312;2024-01-15T09:15:43;6.00;46.90
80695;DHT22;70059;42.702;23.312;2024-01-15T09:18:09;6.20;46.70
80695;DHT22;70059;42.702;23.312;2024-01-15T09:20:35;6.30;46.20
80695;DHT22;70059;42.702;23.312;2024-01-15T09:23:01;6.20;46.50
80695;DHT22;70059;42.702;23.312;2024-01-15T09:25:28;6.40;46.70
80695;DHT22;70059;42.702;23.312;2024-01-15T09:27:56;6.50;46.60
80695;DHT22;70059;42.702;23.312;2024-01-15T09:30:21;6.50;46.30
80695;DHT22;70059;42.702;23.312;2024-01-15T09:32:47;6.60;46.20
80695;DHT22;70059;42.702;23.312;2024-01-15T09:35:14;6.50;46.20
80695;DHT22;70059;42.702;23.312;2024-01-15T09:37:42;6.40;46.20
80695;DHT22;70059;42.702;23.312;2024-01-15T09:40:08;6.40;46.40
80695;DHT22;70059;42.702;23.312;2024-01-15T09:42:50;6.30;46.70
80695;DHT22;70059;42.702;23.312;2024-01-15T09:45:20;6.20;46.90
80695;DHT22;70059;42.702;23.312;2024-01-15T09:47:49;6.20;47.00
80695;DHT22;70059;42.702;23.312;2024-01-15T09:50:17;6.20;46.80
80695;DHT22;70059;42.702;23.312;2024-01-15T09:52:44;6.10;47.20
80695;DHT22;70059;42.702;23.312;2024-01-15T09:55:17;6.00;47.40
80695;DHT22;70059;42.702;23.312;2024-01-15T09:57:44;6.00;46.90
80695;DHT22;70059;42.702;23.312;2024-01-15T10:00:10;6.30;46.40
80695;DHT22;70059;42.702;23.312;2024-01-15T10:02:36;7.50;44.80
80695;DHT22;70059;42.702;23.312;2024-01-15T10:05:02;9.20;40.10
80695;DHT22;70059;42.702;23.312;2024-01-15T10:07:30;10.20;37.30
80695;DHT22;70059;42.702;23.312;2024-01-15T10:10:01;11.40;35.30
80695;DHT22;70059;42.702;23.312;2024-01-15T10:12:27;12.50;32.80
80695;DHT22;70059;42.702;23.312;2024-01-15T10:14:53;13.60;29.80
80695;DHT22;70059;42.702;23.312;2024-01-15T10:17:19;14.60;28.10
80695;DHT22;70059;42.702;23.312;2024-01-15T10:19:47;15.70;26.80
80695;DHT22;70059;42.702;23.312;2024-01-15T10:22:17;16.80;25.40
80695;DHT22;70059;42.702;23.312;2024-01-15T10:24:45;17.70;23.90
80695;DHT22;70059;42.702;23.312;2024-01-15T10:27:21;18.90;22.50
80695;DHT22;70059;42.702;23.312;2024-01-15T10:33:25;20.40;20.30
80695;DHT22;70059;42.702;23.312;2024-01-15T10:35:58;20.90;20.00
80695;DHT22;70059;42.702;23.312;2024-01-15T10:38:25;21.30;19.20
80695;DHT22;70059;42.702;23.312;2024-01-15T10:40:54;20.60;19.70
80695;DHT22;70059;42.702;23.312;2024-01-15T10:43:21;19.90;20.40
80695;DHT22;70059;42.702;23.312;2024-01-15T10:45:49;19.10;21.40
80695;DHT22;70059;42.702;23.312;2024-01-15T10:48:17;19.30;21.50
80695;DHT22;70059;42.702;23.312;2024-01-15T10:50:47;19.70;20.80
80695;DHT22;70059;42.702;23.312;2024-01-15T10:53:22;20.10;21.00
80695;DHT22;70059;42.702;23.312;2024-01-15T10:55:49;20.10;20.20
80695;DHT22;70059;42.702;23.312;2024-01-15T10:58:16;19.60;20.70
80695;DHT22;70059;42.702;23.312;2024-01-15T11:00:43;18.90;21.00
80695;DHT22;70059;42.702;23.312;2024-01-15T11:03:16;18.30;22.00
80695;DHT22;70059;42.702;23.312;2024-01-15T11:05:47;17.40;22.90
80695;DHT22;70059;42.702;23.312;2024-01-15T11:08:13;16.90;24.50
80695;DHT22;70059;42.702;23.312;2024-01-15T11:10:46;16.80;24.10
80695;DHT22;70059;42.702;23.312;2024-01-15T11:13:52;16.80;23.50
80695;DHT22;70059;42.702;23.312;2024-01-15T11:16:54;16.70;24.10
80695;DHT22;70059;42.702;23.312;2024-01-15T11:19:50;16.70;24.10
80695;DHT22;70059;42.702;23.312;2024-01-15T11:22:53;16.50;24.60
80695;DHT22;70059;42.702;23.312;2024-01-15T11:25:22;16.40;24.20
80695;DHT22;70059;42.702;23.312;2024-01-15T11:27:54;16.30;24.80
80695;DHT22;70059;42.702;23.312;2024-01-15T11:30:24;16.30;24.30
80695;DHT22;70059;42.702;23.312;2024-01-15T11:32:57;16.20;24.60
80695;DHT22;70059;42.702;23.312;2024-01-15T11:35:23;16.00;24.70
80695;DHT22;70059;42.702;23.312;2024-01-15T11:40:22;15.70;25.50
80695;DHT22;70059;42.702;23.312;2024-01-15T11:42:48;15.40;25.80
80695;DHT22;70059;42.702;23.312;2024-01-15T11:45:21;15.00;26.20
80695;DHT22;70059;42.702;23.312;2024-01-15T11:48:10;14.90;26.80
80695;DHT22;70059;42.702;23.312;2024-01-15T11:50:49;14.50;26.70
80695;DHT22;70059;42.702;23.312;2024-01-15T11:53:26;14.10;27.10
80695;DHT22;70059;42.702;23.312;2024-01-15T11:55:57;13.80;27.70
80695;DHT22;70059;42.702;23.312;2024-01-15T11:58:23;13.60;28.10
80695;DHT22;70059;42.702;23.312;2024-01-15T12:00:51;13.50;28.40
80695;DHT22;70059;42.702;23.312;2024-01-15T12:03:20;13.20;28.50
80695;DHT22;70059;42.702;23.312;2024-01-15T12:05:46;13.00;28.90
80695;DHT22;70059;42.702;23.312;2024-01-15T12:08:25;12.70;29.30
80695;DHT22;70059;42.702;23.312;2024-01-15T12:10:52;12.40;29.90
80695;DHT22;70059;42.702;23.312;2024-01-15T12:13:18;12.00;30.30
80695;DHT22;70059;42.702;23.312;2024-01-15T12:15:45;11.60;31.30
80695;DHT22;70059;42.702;23.312;2024-01-15T12:18:14;11.40;32.10
80695;DHT22;70059;42.702;23.312;2024-01-15T12:20:41;11.20;32.80
80695;DHT22;70059;42.702;23.312;2024-01-15T12:23:08;11.20;33.20
80695;DHT22;70059;42.702;23.312;2024-01-15T12:25:34;11.10;33.50
80695;DHT22;70059;42.702;23.312;2024-01-15T12:28:00;11.10;33.90
80695;DHT22;70059;42.702;23.312;2024-01-15T12:30:27;11.00;34.20
80695;DHT22;70059;42.702;23.312;2024-01-15T12:32:53;11.00;34.50
80695;DHT22;70059;42.702;23.312;2024-01-15T12:35:26;11.10;34.40
80695;DHT22;70059;42.702;23.312;2024-01-15T12:37:52;10.90;34.60
80695;DHT22;70059;42.702;23.312;2024-01-15T12:40:20;10.80;35.10
80695;DHT22;70059;42.702;23.312;2024-01-15T12:42:46;10.70;34.90
80695;DHT22;70059;42.702;23.312;2024-01-15T12:45:12;10.60;35.00
80695;DHT22;70059;42.702;23.312;2024-01-15T12:47:42;10.90;34.70
80695;DHT22;70059;42.702;23.312;2024-01-15T12:50:11;10.90;34.60
80695;DHT22;70059;42.702;23.312;2024-01-15T12:52:39;10.80;34.80
80695;DHT22;70059;42.702;23.312;2024-01-15T12:55:06;10.70;35.00
80695;DHT22;70059;42.702;23.312;2024-01-15T12:57:34;10.50;35.30
80695;DHT22;70059;42.702;23.312;2024-01-15T13:00:00;10.40;35.90
80695;DHT22;70059;42.702;23.312;2024-01-15T13:02:25;10.20;35.90
80695;DHT22;70059;42.702;23.312;2024-01-15T13:04:51;10.00;36.20
80695;DHT22;70059;42.702;23.312;2024-01-15T13:07:17;10.00;36.40
80695;DHT22;70059;42.702;23.312;2024-01-15T13:09:43;10.00;36.80
80695;DHT22;70059;42.702;23.312;2024-01-15T13:12:09;10.00;36.80
80695;DHT22;70059;42.702;23.312;2024-01-15T13:14:34;9.90;37.10
80695;DHT22;70059;42.702;23.312;2024-01-15T13:17:00;9.80;37.20
80695;DHT22;70059;42.702;23.312;2024-01-15T13:19:26;9.80;37.00
80695;DHT22;70059;42.702;23.312;2024-01-15T13:21:53;9.80;37.30
80695;DHT22;70059;42.702;23.312;2024-01-15T13:24:19;9.70;38.00
80695;DHT22;70059;42.702;23.312;2024-01-15T13:26:45;9.60;38.40
80695;DHT22;70059;42.702;23.312;2024-01-15T13:29:10;9.50;39.00
80695;DHT22;70059;42.702;23.312;2024-01-15T13:31:36;9.40;39.60
80695;DHT22;70059;42.702;23.312;2024-01-15T13:34:04;9.40;39.70
80695;DHT22;70059;42.702;23.312;2024-01-15T13:36:30;9.20;40.90
80695;DHT22;70059;42.702;23.312;2024-01-15T13:38:56;9.20;39.80
80695;DHT22;70059;42.702;23.312;2024-01-15T13:41:22;9.20;39.90
80695;DHT22;70059;42.702;23.312;2024-01-15T13:43:50;9.30;40.10
80695;DHT22;70059;42.702;23.312;2024-01-15T13:46:17;9.30;40.20
80695;DHT22;70059;42.702;23.312;2024-01-15T13:48:43;9.30;40.30
80695;DHT22;70059;42.702;23.312;2024-01-15T13:51:09;9.10;40.40
80695;DHT22;70059;42.702;23.312;2024-01-15T13:53:34;9.10;40.40
80695;DHT22;70059;42.702;23.312;2024-01-15T13:56:00;9.10;40.10
80695;DHT22;70059;42.702;23.312;2024-01-15T13:58:26;9.10;40.20
80695;DHT22;70059;42.702;23.312;2024-01-15T14:00:52;9.30;40.60
80695;DHT22;70059;42.702;23.312;2024-01-15T14:03:17;9.30;40.90
80695;DHT22;70059;42.702;23.312;2024-01-15T14:05:44;9.10;40.80
80695;DHT22;70059;42.702;23.312;2024-01-15T14:08:10;9.00;41.00
80695;DHT22;70059;42.702;23.312;2024-01-15T14:10:42;9.00;40.90
80695;DHT22;70059;42.702;23.312;2024-01-15T14:13:08;9.00;41.60
80695;DHT22;70059;42.702;23.312;2024-01-15T14:15:34;9.00;42.10
80695;DHT22;70059;42.702;23.312;2024-01-15T14:18:00;8.90;42.70
80695;DHT22;70059;42.702;23.312;2024-01-15T14:20:27;9.10;42.60
80695;DHT22;70059;42.702;23.312;2024-01-15T14:22:54;9.40;42.30
80695;DHT22;70059;42.702;23.312;2024-01-15T14:25:20;9.00;42.20
80695;DHT22;70059;42.702;23.312;2024-01-15T14:27:47;8.50;43.50
80695;DHT22;70059;42.702;23.312;2024-01-15T14:30:13;8.00;45.70
80695;DHT22;70059;42.702;23.312;2024-01-15T14:32:40;7.60;45.70
80695;DHT22;70059;42.702;23.312;2024-01-15T14:35:06;7.50;47.00
80695;DHT22;70059;42.702;23.312;2024-01-15T14:37:38;7.50;47.30
80695;DHT22;70059;42.702;23.312;2024-01-15T14:40:07;7.50;47.70
80695;DHT22;70059;42.702;23.312;2024-01-15T14:42:38;7.50;47.80
80695;DHT22;70059;42.702;23.312;2024-01-15T14:45:04;7.60;47.80
80695;DHT22;70059;42.702;23.312;2024-01-15T14:47:34;7.50;49.00
80695;DHT22;70059;42.702;23.312;2024-01-15T14:50:01;7.50;48.20
80695;DHT22;70059;42.702;23.312;2024-01-15T14:52:26;7.40;48.10
80695;DHT22;70059;42.702;23.312;2024-01-15T14:54:52;7.30;47.90
80695;DHT22;70059;42.702;23.312;2024-01-15T14:57:24;7.30;47.90
80695;DHT22;70059;42.702;23.312;2024-01-15T14:59:50;7.30;47.10
80695;DHT22;70059;42.702;23.312;2024-01-15T15:02:15;7.40;47.00
80695;DHT22;70059;42.702;23.312;2024-01-15T15:04:41;7.40;47.10
80695;DHT22;70059;42.702;23.312;2024-01-15T15:07:07;7.50;47.20
80695;DHT22;70059;42.702;23.312;2024-01-15T15:09:33;7.50;47.40
80695;DHT22;70059;42.702;23.312;2024-01-15T15:11:59;7.40;47.60
80695;DHT22;70059;42.702;23.312;2024-01-15T15:14:24;7.30;47.70
80695;DHT22;70059;42.702;23.312;2024-01-15T15:16:50;7.60;46.60
80695;DHT22;70059;42.702;23.312;2024-01-15T15:19:16;7.20;46.50
80695;DHT22;70059;42.702;23.312;2024-01-15T15:21:42;7.10;47.60
80695;DHT22;70059;42.702;23.312;2024-01-15T15:24:08;7.00;48.10
80695;DHT22;70059;42.702;23.312;2024-01-15T15:26:35;6.90;48.40
80695;DHT22;70059;42.702;23.312;2024-01-15T15:29:02;7.10;48.10
80695;DHT22;70059;42.702;23.312;2024-01-15T15:31:27;7.00;48.00
80695;DHT22;70059;42.702;23.312;2024-01-15T15:33:53;6.80;48.40
80695;DHT22;70059;42.702;23.312;2024-01-15T15:36:20;6.60;49.10